Time;durP1;ratioP1;P1;durP2;ratioP2;P2;SDS_P1;SDS_P2;PMS_P1;PMS_P2;Temp;Humidity;BMP_temperature;BMP_pressure;BME280_temperature;BME280_humidity;BME280_pressure;Samples;Min_cycle;Max_cycle;Signal;HPM_P1;HPM_P2
2022/08/15 00:01:06;;;;;;;3.58;2.72;;;;;;;20.34;74.21;94959.75;5011440;28;24436;-71
2022/08/15 00:03:35;;;;;;;3.63;2.40;;;;;;;20.40;71.94;94956.44;5010466;28;24448;-71
2022/08/15 00:06:04;;;;;;;4.95;2.80;;;;;;;20.16;72.38;94954.78;5011571;28;24764;-70
2022/08/15 00:08:34;;;;;;;3.20;2.33;;;;;;;20.25;73.21;94960.81;5011903;28;24837;-71
2022/08/15 00:11:07;;;;;;;5.18;2.70;;;;;;;20.48;73.55;94964.25;5011212;28;24989;-71
2022/08/15 00:13:37;;;;;;;3.28;2.53;;;;;;;20.45;73.73;94951.44;5003143;28;24483;-70
2022/08/15 00:16:05;;;;;;;3.65;2.65;;;;;;;20.36;74.34;94960.41;5007544;28;24536;-71
2022/08/15 00:18:32;;;;;;;3.47;2.45;;;;;;;20.46;75.93;94963.59;5011196;28;24472;-71
2022/08/15 00:20:59;;;;;;;3.85;2.58;;;;;;;20.36;76.04;94956.94;5003151;28;24436;-71
2022/08/15 00:23:27;;;;;;;5.22;2.60;;;;;;;20.38;77.40;94952.34;5011193;28;24482;-71
2022/08/15 00:25:57;;;;;;;3.28;2.42;;;;;;;20.44;77.92;94962.16;5006480;28;24432;-71
2022/08/15 00:28:25;;;;;;;3.90;2.60;;;;;;;20.45;77.51;94967.22;5010798;28;25000;-70
2022/08/15 00:30:53;;;;;;;3.95;3.10;;;;;;;20.40;77.98;94964.31;5010681;28;24436;-71
2022/08/15 00:33:20;;;;;;;3.95;2.53;;;;;;;20.47;77.99;94965.25;5010281;28;25060;-70
2022/08/15 00:35:49;;;;;;;3.13;2.63;;;;;;;20.54;77.52;94968.00;5010974;28;24439;-72
2022/08/15 00:38:18;;;;;;;4.75;2.80;;;;;;;20.40;79.37;94969.59;5011045;28;24448;-71
2022/08/15 00:43:37;;;;;;;5.10;2.90;;;;;;;20.28;80.00;94948.16;5009436;28;24435;-72
2022/08/15 00:46:09;;;;;;;4.68;3.10;;;;;;;20.26;79.02;94952.75;5008463;28;24451;-71
2022/08/15 00:51:22;;;;;;;4.32;3.20;;;;;;;20.02;81.63;94961.63;5009424;28;24447;-71
2022/08/15 00:54:02;;;;;;;3.97;3.05;;;;;;;20.11;81.88;94956.31;5010080;28;24439;-71
2022/08/15 00:56:36;;;;;;;3.83;2.72;;;;;;;20.18;81.44;94958.06;5006450;28;25311;-71
2022/08/15 00:59:05;;;;;;;3.65;2.83;;;;;;;20.19;82.03;94959.69;5004325;28;24444;-70
2022/08/15 01:01:33;;;;;;;9.93;3.17;;;;;;;20.24;82.05;94961.78;5009381;28;25045;-72
2022/08/15 01:04:00;;;;;;;4.53;3.13;;;;;;;20.19;82.14;94957.06;5005880;28;24443;-70
2022/08/15 01:06:26;;;;;;;4.43;3.25;;;;;;;20.23;83.05;94957.53;5009591;28;24436;-70
2022/08/15 01:08:53;;;;;;;4.13;2.80;;;;;;;20.23;81.76;94962.78;5006686;28;24966;-72
2022/08/15 01:11:23;;;;;;;4.28;2.85;;;;;;;20.21;81.46;94964.75;5009545;28;24444;-71
2022/08/15 01:13:52;;;;;;;5.85;3.40;;;;;;;20.19;83.62;94962.31;5009306;28;24436;-70
2022/08/15 01:16:21;;;;;;;4.68;3.00;;;;;;;20.23;81.91;94957.53;5004374;28;24459;-70
2022/08/15 01:18:51;;;;;;;5.60;2.87;;;;;;;20.21;81.71;94964.75;5004418;28;24501;-70
2022/08/15 01:21:24;;;;;;;5.78;3.25;;;;;;;20.24;82.21;94969.69;5004039;28;24989;-71
2022/08/15 01:24:03;;;;;;;4.55;3.00;;;;;;;20.17;82.66;94972.22;5009302;28;24526;-70
2022/08/15 01:26:32;;;;;;;4.22;2.92;;;;;;;20.14;82.12;94962.03;5005603;28;24436;-71
2022/08/15 01:29:00;;;;;;;5.65;3.38;;;;;;;20.16;82.33;94965.31;5007635;28;24796;-70
2022/08/15 01:31:26;;;;;;;5.78;3.13;;;;;;;20.13;81.85;94968.28;5009330;28;24432;-71
2022/08/15 01:33:57;;;;;;;4.13;2.90;;;;;;;20.16;81.58;94964.47;5009129;28;24465;-71
2022/08/15 01:36:26;;;;;;;4.53;3.10;;;;;;;20.23;81.69;94966.25;5009209;28;25065;-71
2022/08/15 01:39:00;;;;;;;6.00;3.22;;;;;;;20.25;80.88;94971.34;5005133;28;24495;-70
2022/08/15 01:41:36;;;;;;;4.50;2.80;;;;;;;20.36;80.53;94964.81;5008867;28;24447;-71
2022/08/15 01:44:11;;;;;;;5.68;3.35;;;;;;;20.26;81.48;94972.97;5006216;28;24448;-72
2022/08/15 01:46:43;;;;;;;3.90;2.80;;;;;;;20.25;81.39;94971.34;5005729;28;24448;-70
2022/08/15 01:49:13;;;;;;;4.68;3.15;;;;;;;20.12;81.51;94969.28;5003883;28;24440;-71
2022/08/15 01:51:41;;;;;;;6.07;3.30;;;;;;;20.03;81.86;94958.00;5009162;28;24468;-71
2022/08/15 01:54:11;;;;;;;3.88;2.78;;;;;;;19.99;81.98;94951.47;5000690;28;24535;-71
2022/08/15 01:56:42;;;;;;;5.23;2.80;;;;;;;20.10;81.79;94947.63;4940848;28;1714145;-70
2022/08/15 01:59:18;;;;;;;5.03;2.53;;;;;;;20.11;81.94;94951.88;5050967;23;24471;-74
2022/08/15 02:01:48;;;;;;;5.00;2.60;;;;;;;20.20;81.28;94936.84;5029125;28;24494;-74
2022/08/15 02:04:17;;;;;;;4.75;3.20;;;;;;;20.18;81.08;94941.47;5029007;28;24489;-74
2022/08/15 02:06:45;;;;;;;7.67;3.00;;;;;;;20.23;80.72;94939.94;5022110;28;25007;-73
2022/08/15 02:09:14;;;;;;;7.95;2.90;;;;;;;20.32;79.83;94951.25;5027527;28;24537;-74
2022/08/15 02:11:43;;;;;;;6.05;3.00;;;;;;;20.30;80.03;94946.13;5029156;28;24475;-73
2022/08/15 02:14:11;;;;;;;3.47;2.78;;;;;;;20.33;80.28;94942.34;5020936;28;24439;-74
2022/08/15 02:16:39;;;;;;;5.18;2.67;;;;;;;20.38;80.79;94950.50;5022763;28;24460;-74
2022/08/15 02:19:08;;;;;;;7.47;2.60;;;;;;;20.39;82.48;94946.88;5028875;28;24471;-74
2022/08/15 02:21:35;;;;;;;5.05;3.10;;;;;;;20.41;81.77;94955.44;5020804;28;24535;-74
2022/08/15 02:24:03;;;;;;;6.20;2.50;;;;;;;20.39;81.33;94960.03;5029025;28;24980;-75
2022/08/15 02:26:29;;;;;;;4.88;2.60;;;;;;;20.24;81.72;94962.59;5026872;28;24436;-75
2022/08/15 02:28:57;;;;;;;6.13;2.65;;;;;;;20.17;83.69;94968.75;5028786;28;24493;-75
2022/08/15 02:31:28;;;;;;;5.25;3.00;;;;;;;19.94;87.78;94966.91;5021775;28;24455;-75
2022/08/15 02:33:58;;;;;;;4.33;2.60;;;;;;;19.83;90.56;94965.50;5020564;28;24440;-75
2022/08/15 02:36:26;;;;;;;7.55;2.70;;;;;;;19.67;92.62;94962.97;5023842;28;24485;-74
2022/08/15 02:38:53;;;;;;;5.75;2.70;;;;;;;19.79;94.50;94956.31;5026193;28;24482;-75
2022/08/15 02:41:21;;;;;;;4.22;2.15;;;;;;;19.86;93.71;94961.72;5028834;28;24432;-74
2022/08/15 02:43:49;;;;;;;3.85;2.83;;;;;;;19.77;94.27;94954.88;5026633;28;24444;-74
2022/08/15 02:46:17;;;;;;;5.53;2.65;;;;;;;19.80;94.97;94962.41;5028291;28;24486;-74
2022/08/15 02:48:46;;;;;;;3.78;2.75;;;;;;;19.76;95.14;94976.88;5030261;28;25061;-73
2022/08/15 02:51:14;;;;;;;4.15;2.63;;;;;;;19.73;94.83;94975.41;5025928;28;24575;-74
2022/08/15 02:53:43;;;;;;;7.00;2.90;;;;;;;19.65;97.68;94975.44;5026748;28;24424;-73
2022/08/15 02:56:10;;;;;;;6.10;3.03;;;;;;;19.40;100.00;94973.91;5026237;28;24878;-73
2022/08/15 02:58:36;;;;;;;4.68;2.60;;;;;;;19.21;100.00;94985.63;5027171;28;24541;-74
2022/08/15 03:01:05;;;;;;;4.80;2.97;;;;;;;19.13;100.00;94986.41;5030371;28;24964;-73
2022/08/15 03:03:33;;;;;;;6.90;3.03;;;;;;;19.01;100.00;94985.97;5030812;28;24489;-74
2022/08/15 03:06:00;;;;;;;4.83;3.00;;;;;;;18.79;100.00;94976.97;5024652;28;24438;-73
2022/08/15 03:08:26;;;;;;;5.55;2.83;;;;;;;18.90;100.00;94975.00;5025369;28;24524;-74
2022/08/15 03:10:53;;;;;;;6.45;2.80;;;;;;;19.06;100.00;94973.19;5027805;28;24439;-73
2022/08/15 03:13:19;;;;;;;6.57;2.50;;;;;;;19.08;100.00;94973.00;5030820;28;24440;-74
2022/08/15 03:15:48;;;;;;;3.03;2.65;;;;;;;19.07;100.00;94976.63;5032147;28;24837;-74
2022/08/15 03:18:17;;;;;;;4.55;2.90;;;;;;;19.09;100.00;94972.81;5026138;28;24567;-74
2022/08/15 03:20:45;;;;;;;6.78;2.60;;;;;;;19.06;100.00;94965.31;5032006;28;24442;-73
2022/08/15 03:23:12;;;;;;;5.17;2.40;;;;;;;19.19;100.00;94962.13;5034861;28;24495;-74
2022/08/15 03:25:40;;;;;;;3.97;2.53;;;;;;;19.26;100.00;94965.72;5038064;28;24848;-74
2022/08/15 03:28:08;;;;;;;4.63;2.58;;;;;;;19.27;100.00;94962.09;5031713;28;24836;-74
2022/08/15 03:30:35;;;;;;;5.75;2.40;;;;;;;19.31;100.00;94958.16;5029293;28;24510;-74
2022/08/15 03:33:02;;;;;;;5.22;2.80;;;;;;;19.38;100.00;94958.28;5031629;28;24442;-74
2022/08/15 03:35:32;;;;;;;3.07;2.50;;;;;;;19.40;100.00;94960.78;5031918;28;24524;-74
2022/08/15 03:38:00;;;;;;;5.47;2.57;;;;;;;19.36;100.00;94954.22;5025123;28;25029;-74
2022/08/15 03:40:28;;;;;;;4.05;2.58;;;;;;;19.43;100.00;94956.00;5028998;28;24817;-74
2022/08/15 03:42:58;;;;;;;4.85;2.65;;;;;;;19.43;100.00;94957.78;5031712;28;24491;-74
2022/08/15 03:45:25;;;;;;;4.38;2.72;;;;;;;19.44;100.00;94954.19;5031636;28;24849;-73
2022/08/15 03:47:52;;;;;;;3.58;2.60;;;;;;;19.39;100.00;94956.47;5021044;28;24448;-74
2022/08/15 03:50:20;;;;;;;4.63;2.30;;;;;;;19.23;100.00;94950.31;5026965;28;24793;-74
2022/08/15 03:52:53;;;;;;;5.97;2.57;;;;;;;19.28;100.00;94957.66;5031359;28;24447;-73
2022/08/15 03:55:23;;;;;;;3.40;2.60;;;;;;;19.23;100.00;94955.56;5030931;28;24824;-74
2022/08/15 03:57:49;;;;;;;3.88;2.40;;;;;;;19.24;100.00;94954.56;5021455;28;24456;-74
2022/08/15 04:00:18;;;;;;;8.70;2.67;;;;;;;19.14;100.00;94955.78;5028752;28;24499;-74
2022/08/15 04:02:45;;;;;;;3.57;2.80;;;;;;;19.14;100.00;94959.22;5031540;28;25002;-75
2022/08/15 04:05:12;;;;;;;5.88;2.58;;;;;;;19.19;100.00;94953.44;5031127;28;24431;-75
2022/08/15 04:07:39;;;;;;;8.32;2.58;;;;;;;19.19;100.00;94954.25;5030168;28;24542;-74
2022/08/15 04:10:09;;;;;;;3.70;2.30;;;;;;;19.24;100.00;94956.38;5030465;28;24443;-74
2022/08/15 04:12:40;;;;;;;3.92;2.45;;;;;;;19.29;100.00;94964.56;5031379;28;24443;-75
2022/08/15 04:15:11;;;;;;;4.75;2.40;;;;;;;19.30;100.00;94960.97;5031207;28;24639;-75
2022/08/15 04:17:38;;;;;;;3.53;2.45;;;;;;;19.05;100.00;94955.78;5030031;28;24470;-75
2022/08/15 04:20:06;;;;;;;4.68;2.75;;;;;;;18.86;100.00;94964.03;5027234;28;24564;-74
2022/08/15 04:22:35;;;;;;;5.03;2.70;;;;;;;18.89;100.00;94961.06;5030150;28;24435;-73
2022/08/15 04:25:02;;;;;;;6.43;2.70;;;;;;;18.94;100.00;94963.19;5025885;28;24890;-73
2022/08/15 04:27:29;;;;;;;4.28;2.40;;;;;;;18.85;100.00;94965.00;5028341;28;24535;-74
2022/08/15 04:29:57;;;;;;;2.67;2.37;;;;;;;18.85;100.00;94972.88;5027559;28;24439;-74
2022/08/15 04:32:26;;;;;;;3.90;2.40;;;;;;;18.92;100.00;94978.28;5022010;28;24969;-73
2022/08/15 04:34:53;;;;;;;3.93;2.13;;;;;;;18.99;100.00;94980.06;5028914;28;24523;-72
2022/08/15 04:37:20;;;;;;;5.18;2.67;;;;;;;18.97;100.00;94992.53;5027884;28;24471;-73
2022/08/15 04:39:48;;;;;;;2.90;2.17;;;;;;;18.91;100.00;94982.72;5028613;28;24440;-73
2022/08/15 04:42:15;;;;;;;6.30;2.10;;;;;;;18.83;100.00;94982.72;5028555;28;24446;-74
2022/08/15 04:44:41;;;;;;;3.90;2.00;;;;;;;18.91;100.00;94990.59;5022409;28;24432;-74
2022/08/15 04:47:09;;;;;;;3.72;2.08;;;;;;;18.93;100.00;94993.03;5026476;28;24498;-73
2022/08/15 04:49:35;;;;;;;3.20;2.35;;;;;;;18.72;100.00;94998.78;5028430;28;24444;-74
2022/08/15 04:52:11;;;;;;;3.15;2.20;;;;;;;18.66;100.00;94992.38;5024026;28;24439;-73
2022/08/15 04:54:38;;;;;;;3.42;2.17;;;;;;;18.55;100.00;94995.34;5028620;28;24873;-74
2022/08/15 04:57:05;;;;;;;2.75;1.90;;;;;;;18.40;100.00;95000.41;5029977;28;24450;-73
2022/08/15 04:59:32;;;;;;;4.72;2.00;;;;;;;18.33;100.00;94997.63;5028085;28;24510;-73
2022/08/15 05:01:59;;;;;;;3.90;1.80;;;;;;;18.44;100.00;94996.47;5020523;28;24441;-73
2022/08/15 05:04:27;;;;;;;2.47;1.60;;;;;;;18.59;100.00;94997.47;5030446;28;24440;-74
2022/08/15 05:06:54;;;;;;;3.15;1.90;;;;;;;18.38;100.00;94992.69;5030149;28;24431;-73
2022/08/15 05:09:20;;;;;;;2.20;1.80;;;;;;;18.45;100.00;94994.66;5029062;28;24471;-73
2022/08/15 05:11:46;;;;;;;4.70;1.90;;;;;;;18.48;100.00;94987.31;5024022;28;25042;-73
2022/08/15 05:14:13;;;;;;;5.20;1.90;;;;;;;18.58;100.00;94985.34;5029020;28;24439;-72
2022/08/15 05:16:39;;;;;;;3.88;1.67;;;;;;;18.69;100.00;94973.69;5030064;28;24440;-72
2022/08/15 05:19:06;;;;;;;8.75;2.08;;;;;;;18.72;100.00;94980.44;5023935;28;24460;-73
2022/08/15 05:21:34;;;;;;;4.00;2.00;;;;;;;18.78;100.00;94971.91;5028788;28;24841;-73
2022/08/15 05:24:00;;;;;;;3.60;1.70;;;;;;;18.84;100.00;94969.44;5027257;28;24443;-72
2022/08/15 05:26:27;;;;;;;3.78;1.52;;;;;;;18.86;100.00;94964.84;5028972;28;24822;-73
2022/08/15 05:28:53;;;;;;;2.85;1.80;;;;;;;18.83;100.00;94967.78;5028307;28;24489;-73
2022/08/15 05:31:19;;;;;;;8.73;1.90;;;;;;;18.81;100.00;94951.41;5029487;28;24519;-72
2022/08/15 05:33:47;;;;;;;2.92;1.77;;;;;;;18.90;100.00;94946.94;5028998;28;24506;-72
2022/08/15 05:36:16;;;;;;;4.78;2.15;;;;;;;18.99;100.00;94943.34;5023837;28;24483;-72
2022/08/15 05:38:47;;;;;;;3.00;1.58;;;;;;;18.96;100.00;94934.97;5021524;28;24531;-72
2022/08/15 05:41:24;;;;;;;3.33;1.80;;;;;;;19.09;100.00;94945.75;5029275;28;24436;-73
2022/08/15 05:44:00;;;;;;;2.90;1.70;;;;;;;19.07;100.00;94951.19;5028215;28;24447;-72
2022/08/15 05:46:40;;;;;;;2.88;1.40;;;;;;;19.05;100.00;94963.66;5021896;28;25004;-72
2022/08/15 05:49:21;;;;;;;2.40;1.45;;;;;;;18.88;100.00;94969.13;5023777;28;24443;-72
2022/08/15 05:52:01;;;;;;;3.38;1.63;;;;;;;18.85;100.00;94972.88;5026333;28;24522;-69
2022/08/15 05:54:41;;;;;;;3.10;1.70;;;;;;;18.86;100.00;94972.69;5028543;28;24830;-73
2022/08/15 05:57:13;;;;;;;5.20;2.00;;;;;;;18.85;100.00;94981.56;5028396;28;24436;-73
2022/08/15 05:59:44;;;;;;;3.92;1.73;;;;;;;18.73;100.00;94966.34;5023582;28;24456;-73
2022/08/15 06:02:19;;;;;;;3.50;1.77;;;;;;;18.65;100.00;94961.06;5027651;28;24435;-73
2022/08/15 06:04:51;;;;;;;2.92;1.80;;;;;;;18.58;100.00;94956.50;5022629;28;24466;-73
2022/08/15 06:07:19;;;;;;;5.10;1.80;;;;;;;18.65;100.00;94971.53;5024008;28;24900;-74
2022/08/15 06:09:51;;;;;;;4.28;1.88;;;;;;;18.63;100.00;94976.97;5028808;28;24439;-73
2022/08/15 06:12:25;;;;;;;2.83;1.60;;;;;;;18.62;100.00;94980.59;5023837;28;24805;-73
2022/08/15 06:14:56;;;;;;;1.73;1.50;;;;;;;18.62;100.00;94978.78;5022477;28;24571;-73
2022/08/15 06:17:28;;;;;;;3.88;2.00;;;;;;;18.53;100.00;94986.81;5027191;28;24447;-74
2022/08/15 06:20:00;;;;;;;2.77;1.60;;;;;;;18.55;100.00;94980.41;5028585;28;24551;-73
2022/08/15 06:22:50;;;;;;;2.58;1.52;;;;;;;18.62;100.00;94984.03;5028918;28;25007;-73
2022/08/15 06:25:27;;;;;;;2.25;1.60;;;;;;;18.63;100.00;94983.03;5028026;28;24443;-71
2022/08/15 06:28:09;;;;;;;6.63;1.50;;;;;;;18.75;100.00;94985.34;5028767;28;24435;-71
2022/08/15 06:30:44;;;;;;;2.97;1.70;;;;;;;18.75;100.00;94999.28;5025288;28;24439;-71
2022/08/15 06:33:24;;;;;;;3.83;1.92;;;;;;;18.82;100.00;94996.81;5031598;28;25054;-71
2022/08/15 06:35:59;;;;;;;2.83;1.45;;;;;;;18.97;100.00;94991.72;5032789;28;24440;-71
2022/08/15 06:38:35;;;;;;;6.78;1.90;;;;;;;19.23;99.21;94994.94;5029072;28;24456;-71
2022/08/15 06:41:10;;;;;;;3.37;2.03;;;;;;;19.34;98.29;94991.94;5030973;28;24533;-71
2022/08/15 06:43:36;;;;;;;2.57;1.80;;;;;;;19.30;98.41;94989.84;5032490;28;24444;-71
2022/08/15 06:46:05;;;;;;;3.13;1.75;;;;;;;19.18;98.68;94999.06;5031975;28;24539;-71
2022/08/15 06:48:36;;;;;;;2.75;1.90;;;;;;;19.21;98.80;95006.63;5032638;28;24493;-72
2022/08/15 06:51:07;;;;;;;2.55;1.90;;;;;;;19.24;100.00;95004.44;5030286;28;24794;-72
2022/08/15 06:53:38;;;;;;;4.82;1.98;;;;;;;19.29;99.51;94998.72;5031660;28;24485;-72
2022/08/15 06:56:12;;;;;;;4.32;1.65;;;;;;;19.32;98.58;95001.00;5032305;28;24489;-72
2022/08/15 06:58:52;;;;;;;3.63;1.70;;;;;;;19.30;97.30;95000.34;5027140;28;24463;-72
2022/08/15 07:01:35;;;;;;;7.57;1.83;;;;;;;19.39;97.99;95003.75;5031997;28;24443;-72
2022/08/15 07:04:13;;;;;;;3.13;1.70;;;;;;;19.32;97.07;95001.00;5020643;28;24482;-72
2022/08/15 07:06:44;;;;;;;2.30;1.80;;;;;;;19.48;94.77;95006.19;5033557;28;24535;-72
2022/08/15 07:09:24;;;;;;;1.67;1.55;;;;;;;19.78;92.24;95006.44;5034137;28;24494;-73
2022/08/15 07:12:01;;;;;;;2.45;1.58;;;;;;;20.02;91.99;95016.81;5032145;28;24439;-71
2022/08/15 07:14:35;;;;;;;3.20;1.70;;;;;;;19.93;89.89;95003.88;5024857;28;24818;-71
2022/08/15 07:17:06;;;;;;;3.13;1.80;;;;;;;20.09;90.00;95005.59;5029811;28;24439;-71
2022/08/15 07:19:35;;;;;;;2.97;1.45;;;;;;;20.31;88.28;95002.16;5029807;28;24452;-71
2022/08/15 07:22:01;;;;;;;1.63;1.30;;;;;;;20.67;88.27;94996.34;5024565;28;24486;-71
2022/08/15 07:24:30;;;;;;;1.55;1.35;;;;;;;20.75;85.23;95010.25;5032403;28;24438;-71
2022/08/15 07:27:07;;;;;;;3.17;1.63;;;;;;;20.54;83.27;95004.81;5027060;28;24431;-74
2022/08/15 07:29:43;;;;;;;2.20;1.48;;;;;;;20.85;82.53;95010.03;5028290;28;24436;-71
2022/08/15 07:32:13;;;;;;;1.70;1.30;;;;;;;21.08;80.35;95002.06;5032172;28;24756;-71
2022/08/15 07:34:54;;;;;;;2.08;1.27;;;;;;;21.46;79.55;95004.66;5031288;28;25046;-71
2022/08/15 07:37:22;;;;;;;2.25;1.38;;;;;;;21.23;78.60;95002.09;5027534;28;25059;-71
2022/08/15 07:39:57;;;;;;;2.40;1.20;;;;;;;21.31;76.71;94996.72;5031083;28;24451;-71
2022/08/15 07:42:25;;;;;;;2.45;1.20;;;;;;;21.35;75.52;95000.66;5027855;28;24436;-72
2022/08/15 07:44:55;;;;;;;2.05;1.23;;;;;;;21.58;76.10;94997.94;5029589;28;24716;-71
2022/08/15 07:47:24;;;;;;;1.70;1.30;;;;;;;21.75;73.54;94999.38;5030378;28;25005;-71
2022/08/15 07:49:59;;;;;;;1.88;0.98;;;;;;;21.95;71.51;94991.72;5024375;28;24466;-71
2022/08/15 07:52:27;;;;;;;1.70;1.00;;;;;;;21.80;69.15;94992.72;5031552;28;24443;-70
2022/08/15 07:54:55;;;;;;;2.13;1.20;;;;;;;21.58;69.54;95000.59;5023968;28;24469;-71
2022/08/15 07:57:26;;;;;;;2.05;1.00;;;;;;;21.87;70.35;94991.00;5030964;28;24447;-71
2022/08/15 08:00:12;;;;;;;1.20;0.93;;;;;;;22.50;67.83;94992.09;5024256;28;24572;-71
2022/08/15 08:02:44;;;;;;;2.17;1.00;;;;;;;22.42;66.05;94992.22;5026598;28;24467;-71
2022/08/15 08:05:12;;;;;;;1.38;0.90;;;;;;;22.46;64.32;94994.28;5024789;28;24436;-72
2022/08/15 08:07:41;;;;;;;1.85;0.90;;;;;;;22.24;64.27;94997.91;5031295;28;24450;-71
2022/08/15 08:10:14;;;;;;;0.93;0.80;;;;;;;22.39;64.03;94988.13;5023470;28;24539;-71
2022/08/15 08:12:52;;;;;;;4.10;0.83;;;;;;;22.71;64.60;94994.72;5028167;28;24432;-71
2022/08/15 08:15:25;;;;;;;2.17;1.00;;;;;;;22.83;62.93;94997.66;5028225;28;25111;-71
2022/08/15 08:18:00;;;;;;;1.77;1.00;;;;;;;23.03;61.99;94997.06;5027494;28;24440;-72
2022/08/15 08:20:35;;;;;;;1.80;0.90;;;;;;;23.66;60.58;94995.22;5023428;28;25056;-72
2022/08/15 08:23:06;;;;;;;4.00;1.10;;;;;;;23.39;58.30;94996.88;5028228;28;24439;-71
2022/08/15 08:25:40;;;;;;;2.70;1.00;;;;;;;23.38;59.18;94993.41;5029097;28;24439;-71
2022/08/15 08:28:18;;;;;;;1.42;0.82;;;;;;;22.55;61.11;94991.56;5023528;28;24442;-72
2022/08/15 08:30:53;;;;;;;1.63;0.90;;;;;;;21.75;62.20;94994.09;5030612;28;24493;-72
2022/08/15 08:33:35;;;;;;;3.35;1.40;;;;;;;21.71;62.09;94995.47;5030684;28;25367;-71
2022/08/15 08:36:10;;;;;;;3.58;1.25;;;;;;;21.60;64.33;95003.84;5030100;28;25015;-72
2022/08/15 08:38:43;;;;;;;1.35;0.90;;;;;;;22.02;63.15;95012.03;5030492;28;24470;-71
2022/08/15 08:41:26;;;;;;;4.50;1.20;;;;;;;22.38;61.16;95002.34;5030595;28;24440;-71
2022/08/15 08:44:06;;;;;;;0.90;0.90;;;;;;;22.52;61.41;95010.41;5024665;28;24964;-71
2022/08/15 08:46:45;;;;;;;2.75;1.15;;;;;;;22.78;61.40;95013.28;5030596;28;24539;-71
2022/08/15 08:49:21;;;;;;;1.75;1.00;;;;;;;22.66;60.59;95014.78;5027912;28;24438;-71
2022/08/15 08:51:57;;;;;;;1.40;1.10;;;;;;;22.77;59.82;95014.28;5028582;28;24802;-71
2022/08/15 08:54:29;;;;;;;2.88;1.17;;;;;;;23.39;58.22;95010.06;5029996;28;25023;-71
2022/08/15 08:57:01;;;;;;;1.80;1.20;;;;;;;23.49;57.99;95007.09;5022392;28;24798;-72
2022/08/15 08:59:34;;;;;;;5.20;1.10;;;;;;;23.55;55.78;95009.78;5025897;28;24455;-72
2022/08/15 09:04:38;;;;;;;2.75;1.17;;;;;;;24.35;53.75;95013.56;4997320;28;25045;-72
2022/08/15 09:07:06;;;;;;;4.50;1.08;;;;;;;24.55;53.10;95018.16;4993025;28;24536;-72
2022/08/15 09:09:37;;;;;;;1.98;1.00;;;;;;;24.27;53.15;95016.41;5000000;28;24969;-73
2022/08/15 09:14:59;;;;;;;1.20;1.05;;;;;;;24.17;54.19;95018.59;5004559;28;24879;-72
2022/08/15 09:17:29;;;;;;;2.38;0.93;;;;;;;23.90;54.50;95015.88;5002764;28;24444;-72
2022/08/15 09:20:00;;;;;;;1.90;1.20;;;;;;;23.29;54.51;95012.28;5000531;28;24452;-72
2022/08/15 09:22:27;;;;;;;2.30;1.20;;;;;;;23.24;54.87;95012.00;5002865;28;24447;-71
2022/08/15 09:24:54;;;;;;;1.33;1.00;;;;;;;23.61;54.62;95014.28;4993942;28;24514;-71
2022/08/15 09:27:25;;;;;;;1.10;1.00;;;;;;;24.15;52.96;95020.66;5004088;28;24443;-71
2022/08/15 09:29:58;;;;;;;1.60;1.13;;;;;;;24.66;51.14;95008.78;4998409;28;24515;-72
2022/08/15 09:32:41;;;;;;;3.35;1.27;;;;;;;24.86;51.58;95010.44;5004518;28;24451;-72
2022/08/15 09:35:31;;;;;;;1.97;1.27;;;;;;;25.24;48.47;95001.06;4996092;28;24441;-72
2022/08/15 09:38:35;;;;;;;1.58;1.20;;;;;;;24.85;49.46;95008.00;4998545;28;24801;-73
2022/08/15 09:41:26;;;;;;;2.30;1.33;;;;;;;24.78;48.79;95004.53;4980290;28;24502;-71
2022/08/15 09:44:17;;;;;;;3.23;1.30;;;;;;;24.32;48.46;95005.22;4997417;28;24451;-72
2022/08/15 09:47:18;;;;;;;2.75;1.40;;;;;;;24.65;49.65;94997.38;4992321;28;24534;-72
2022/08/15 09:50:02;;;;;;;1.80;1.10;;;;;;;24.98;47.34;94996.56;4979766;28;24440;-74
2022/08/15 09:52:38;;;;;;;2.15;1.50;;;;;;;24.76;47.20;94993.31;5004066;28;24437;-74
2022/08/15 09:55:19;;;;;;;1.25;1.10;;;;;;;24.92;47.53;94986.78;5009720;28;25044;-73
2022/08/15 09:57:51;;;;;;;2.30;1.30;;;;;;;24.72;47.04;94998.19;5000986;28;24479;-73
2022/08/15 10:00:24;;;;;;;1.65;1.08;;;;;;;24.78;47.22;94996.59;4991895;28;25049;-73
2022/08/15 10:02:59;;;;;;;3.70;1.30;;;;;;;25.39;46.55;94992.91;4999794;28;24440;-72
2022/08/15 10:05:40;;;;;;;2.07;1.40;;;;;;;25.42;45.81;94993.28;5006525;28;24565;-73
2022/08/15 10:08:08;;;;;;;2.00;1.10;;;;;;;25.35;45.21;94981.88;5001211;28;24503;-73
2022/08/15 10:10:52;;;;;;;2.20;1.60;;;;;;;25.86;44.96;94983.81;5009369;28;24436;-73
2022/08/15 10:13:46;;;;;;;1.55;1.20;;;;;;;26.26;43.12;94976.47;5009538;28;25005;-72
2022/08/15 10:16:49;;;;;;;2.28;1.17;;;;;;;26.34;42.73;94972.75;5003438;28;24498;-73
2022/08/15 10:19:33;;;;;;;2.90;1.50;;;;;;;25.68;43.82;94968.53;5001129;28;24459;-73
2022/08/15 10:22:03;;;;;;;3.95;1.55;;;;;;;24.90;46.47;94976.41;5009074;28;24476;-73
2022/08/15 10:24:34;;;;;;;2.72;1.40;;;;;;;24.30;48.21;94981.63;5009593;28;24436;-73
2022/08/15 10:27:09;;;;;;;2.13;1.30;;;;;;;24.24;48.06;94978.94;5006871;28;24447;-73
2022/08/15 10:29:37;;;;;;;1.83;1.33;;;;;;;24.44;47.55;94981.69;5008851;28;25029;-73
2022/08/15 10:32:05;;;;;;;2.40;1.50;;;;;;;24.37;48.80;94979.81;5006580;28;24536;-72
2022/08/15 10:34:38;;;;;;;5.85;1.52;;;;;;;24.15;49.10;94973.03;5009578;28;24528;-71
2022/08/15 10:37:17;;;;;;;5.60;1.33;;;;;;;24.54;48.88;94968.84;5002015;28;24877;-71
2022/08/15 10:40:07;;;;;;;3.35;1.40;;;;;;;24.88;46.91;94962.53;5009417;28;24502;-71
2022/08/15 10:42:42;;;;;;;2.80;1.70;;;;;;;24.94;46.37;94960.91;4979522;28;24534;-71
2022/08/15 10:45:16;;;;;;;2.08;1.58;;;;;;;24.77;46.18;94968.44;5009359;28;24447;-72
2022/08/15 10:47:54;;;;;;;3.40;1.77;;;;;;;24.65;46.28;94968.25;5005267;28;24502;-71
2022/08/15 10:50:26;;;;;;;2.35;1.85;;;;;;;24.47;46.00;94963.53;5004531;28;24523;-71
2022/08/15 10:53:07;;;;;;;2.55;1.55;;;;;;;24.51;46.42;94958.66;5007790;28;24843;-72
2022/08/15 10:55:36;;;;;;;4.85;2.00;;;;;;;24.71;46.59;94956.84;5006503;28;24909;-71
2022/08/15 10:58:13;;;;;;;4.40;2.05;;;;;;;25.29;45.05;94954.41;5004568;28;24798;-72
2022/08/15 11:00:45;;;;;;;4.78;2.10;;;;;;;25.21;46.22;94951.94;5005895;28;24464;-72
2022/08/15 11:03:18;;;;;;;2.00;1.50;;;;;;;24.75;46.64;94947.47;5006874;28;25008;-71
2022/08/15 11:05:55;;;;;;;3.65;1.80;;;;;;;25.03;46.21;94946.44;5008049;28;24455;-72
2022/08/15 11:08:23;;;;;;;3.78;1.90;;;;;;;24.96;46.63;94943.81;5008857;28;24498;-72
2022/08/15 11:10:50;;;;;;;3.15;1.60;;;;;;;24.95;46.23;94944.00;5009196;28;24436;-71
2022/08/15 11:13:22;;;;;;;3.03;1.90;;;;;;;24.71;47.17;94945.47;5008863;28;26248;-70
2022/08/15 11:15:54;;;;;;;2.08;1.60;;;;;;;24.76;47.06;94953.59;5003174;28;24495;-72
2022/08/15 11:18:27;;;;;;;3.17;1.70;;;;;;;24.69;46.20;94947.47;5010882;28;25051;-72
2022/08/15 11:21:04;;;;;;;3.63;2.05;;;;;;;24.71;46.23;94943.63;5008959;28;25016;-71
2022/08/15 11:23:36;;;;;;;3.13;2.10;;;;;;;24.60;45.73;94941.56;5003988;28;24908;-70
2022/08/15 11:26:05;;;;;;;2.22;1.80;;;;;;;24.46;46.73;94943.41;5003070;28;24540;-72
2022/08/15 11:28:32;;;;;;;3.58;1.85;;;;;;;24.52;46.98;94941.78;5012580;28;24448;-71
2022/08/15 11:31:01;;;;;;;10.52;2.45;;;;;;;24.43;46.92;94932.41;5008950;28;25020;-71
2022/08/15 11:33:35;;;;;;;2.90;1.90;;;;;;;24.51;47.45;94937.47;5008798;28;25048;-72
2022/08/15 11:36:09;;;;;;;2.42;1.90;;;;;;;24.72;47.13;94932.00;5006946;28;24532;-72
2022/08/15 11:38:40;;;;;;;2.10;1.50;;;;;;;24.98;46.16;94931.16;5011585;28;24444;-71
2022/08/15 11:41:07;;;;;;;3.42;2.03;;;;;;;24.84;44.80;94934.84;5011873;28;24861;-71
2022/08/15 11:43:34;;;;;;;7.18;2.10;;;;;;;25.03;46.47;94925.25;5012177;28;25012;-72
2022/08/15 11:46:02;;;;;;;3.97;1.85;;;;;;;25.12;45.79;94932.00;5011852;28;25005;-70
2022/08/15 11:48:33;;;;;;;3.92;1.85;;;;;;;24.94;45.34;94929.13;5011975;28;25000;-71
2022/08/15 11:51:03;;;;;;;3.40;1.75;;;;;;;25.22;44.34;94920.97;5005365;28;24498;-71
2022/08/15 11:53:33;;;;;;;2.80;1.70;;;;;;;25.51;45.37;94923.13;5008115;28;24471;-71
2022/08/15 11:56:01;;;;;;;4.18;1.80;;;;;;;25.30;44.25;94915.44;5008682;28;24444;-70
2022/08/15 11:58:34;;;;;;;2.30;1.73;;;;;;;25.30;44.56;94918.91;5012936;28;24442;-70
2022/08/15 12:01:20;;;;;;;3.00;1.90;;;;;;;25.18;44.14;94914.44;5012627;28;24460;-71
2022/08/15 12:04:00;;;;;;;8.55;1.92;;;;;;;25.35;44.14;94920.94;5010098;28;24472;-72